sensor_id;sensor_type;location;lat;lon;timestamp;P1;durP1;ratioP1;P2;durP2;ratioP2
41572;SDS011;27286;47.870;19.006;2023-11-18T00:00:39;5.72;;;2.13;;
41572;SDS011;27286;47.870;19.006;2023-11-18T00:03:58;5.25;;;2.40;;
41572;SDS011;27286;47.870;19.006;2023-11-18T00:06:43;3.25;;;1.55;;
41572;SDS011;27286;47.870;19.006;2023-11-18T00:09:42;2.65;;;1.63;;
41572;SDS011;27286;47.870;19.006;2023-11-18T00:12:27;5.15;;;2.38;;
41572;SDS011;27286;47.870;19.006;2023-11-18T00:14:56;3.30;;;1.80;;
41572;SDS011;27286;47.870;19.006;2023-11-18T00:18:17;4.82;;;1.98;;
41572;SDS011;27286;47.870;19.006;2023-11-18T00:21:35;4.13;;;2.00;;
41572;SDS011;27286;47.870;19.006;2023-11-18T00:24:23;4.32;;;2.55;;
41572;SDS011;27286;47.870;19.006;2023-11-18T00:26:56;4.10;;;2.72;;
41572;SDS011;27286;47.870;19.006;2023-11-18T00:30:15;5.07;;;2.72;;
41572;SDS011;27286;47.870;19.006;2023-11-18T00:33:34;8.00;;;2.53;;
41572;SDS011;27286;47.870;19.006;2023-11-18T00:36:22;4.63;;;2.72;;
41572;SDS011;27286;47.870;19.006;2023-11-18T00:39:30;3.00;;;1.67;;
41572;SDS011;27286;47.870;19.006;2023-11-18T00:42:15;5.30;;;1.73;;
41572;SDS011;27286;47.870;19.006;2023-11-18T00:44:55;4.38;;;1.88;;
41572;SDS011;27286;47.870;19.006;2023-11-18T00:47:57;3.15;;;0.93;;
41572;SDS011;27286;47.870;19.006;2023-11-18T00:54:31;4.22;;;2.03;;
41572;SDS011;27286;47.870;19.006;2023-11-18T00:57:20;3.88;;;2.10;;
41572;SDS011;27286;47.870;19.006;2023-11-18T01:00:30;4.28;;;1.83;;
41572;SDS011;27286;47.870;19.006;2023-11-18T01:04:00;3.28;;;1.40;;
41572;SDS011;27286;47.870;19.006;2023-11-18T01:07:25;4.88;;;1.73;;
41572;SDS011;27286;47.870;19.006;2023-11-18T01:10:25;3.67;;;1.52;;
41572;SDS011;27286;47.870;19.006;2023-11-18T01:13:22;4.15;;;1.80;;
41572;SDS011;27286;47.870;19.006;2023-11-18T01:15:51;5.93;;;1.90;;
41572;SDS011;27286;47.870;19.006;2023-11-18T01:18:32;5.10;;;2.00;;
41572;SDS011;27286;47.870;19.006;2023-11-18T01:21:51;3.90;;;1.70;;
41572;SDS011;27286;47.870;19.006;2023-11-18T01:24:55;3.97;;;1.77;;
41572;SDS011;27286;47.870;19.006;2023-11-18T01:27:25;2.83;;;1.45;;
41572;SDS011;27286;47.870;19.006;2023-11-18T01:30:12;2.88;;;1.77;;
41572;SDS011;27286;47.870;19.006;2023-11-18T01:35:58;6.55;;;2.13;;
41572;SDS011;27286;47.870;19.006;2023-11-18T01:39:39;3.90;;;2.20;;
41572;SDS011;27286;47.870;19.006;2023-11-18T01:49:11;4.07;;;1.92;;
41572;SDS011;27286;47.870;19.006;2023-11-18T01:51:46;4.55;;;2.33;;
41572;SDS011;27286;47.870;19.006;2023-11-18T01:58:14;3.53;;;2.13;;
41572;SDS011;27286;47.870;19.006;2023-11-18T02:01:54;5.18;;;1.92;;
41572;SDS011;27286;47.870;19.006;2023-11-18T02:04:49;3.80;;;1.80;;
41572;SDS011;27286;47.870;19.006;2023-11-18T02:08:21;9.75;;;2.10;;
41572;SDS011;27286;47.870;19.006;2023-11-18T02:11:00;3.70;;;2.45;;
41572;SDS011;27286;47.870;19.006;2023-11-18T02:14:28;3.17;;;1.95;;
41572;SDS011;27286;47.870;19.006;2023-11-18T02:17:22;3.88;;;1.80;;
41572;SDS011;27286;47.870;19.006;2023-11-18T02:19:55;4.20;;;2.72;;
41572;SDS011;27286;47.870;19.006;2023-11-18T02:23:03;3.55;;;1.50;;
41572;SDS011;27286;47.870;19.006;2023-11-18T02:26:20;3.35;;;1.40;;
41572;SDS011;27286;47.870;19.006;2023-11-18T02:28:56;3.75;;;2.03;;
41572;SDS011;27286;47.870;19.006;2023-11-18T02:35:38;3.45;;;1.67;;
41572;SDS011;27286;47.870;19.006;2023-11-18T02:41:26;3.13;;;1.65;;
41572;SDS011;27286;47.870;19.006;2023-11-18T02:44:07;2.47;;;1.48;;
41572;SDS011;27286;47.870;19.006;2023-11-18T02:46:51;3.92;;;1.60;;
41572;SDS011;27286;47.870;19.006;2023-11-18T02:50:05;2.80;;;1.38;;
41572;SDS011;27286;47.870;19.006;2023-11-18T02:53:05;2.47;;;1.35;;
41572;SDS011;27286;47.870;19.006;2023-11-18T02:56:20;2.83;;;1.52;;
41572;SDS011;27286;47.870;19.006;2023-11-18T02:59:31;3.60;;;1.85;;
41572;SDS011;27286;47.870;19.006;2023-11-18T03:02:38;2.88;;;1.70;;
41572;SDS011;27286;47.870;19.006;2023-11-18T03:05:51;4.32;;;1.73;;
41572;SDS011;27286;47.870;19.006;2023-11-18T03:08:45;4.53;;;1.48;;
41572;SDS011;27286;47.870;19.006;2023-11-18T03:11:50;3.58;;;1.70;;
41572;SDS011;27286;47.870;19.006;2023-11-18T03:14:59;3.28;;;1.55;;
41572;SDS011;27286;47.870;19.006;2023-11-18T03:18:12;2.50;;;1.38;;
41572;SDS011;27286;47.870;19.006;2023-11-18T03:20:41;2.42;;;1.50;;
41572;SDS011;27286;47.870;19.006;2023-11-18T03:23:18;3.42;;;1.63;;
41572;SDS011;27286;47.870;19.006;2023-11-18T03:26:07;2.25;;;0.98;;
41572;SDS011;27286;47.870;19.006;2023-11-18T03:29:04;2.72;;;1.40;;
41572;SDS011;27286;47.870;19.006;2023-11-18T03:32:31;2.40;;;1.25;;
41572;SDS011;27286;47.870;19.006;2023-11-18T03:35:39;2.17;;;1.10;;
41572;SDS011;27286;47.870;19.006;2023-11-18T03:38:31;3.03;;;1.38;;
41572;SDS011;27286;47.870;19.006;2023-11-18T03:41:41;3.28;;;1.30;;
41572;SDS011;27286;47.870;19.006;2023-11-18T03:44:11;3.53;;;2.08;;
41572;SDS011;27286;47.870;19.006;2023-11-18T03:47:12;1.80;;;0.88;;
41572;SDS011;27286;47.870;19.006;2023-11-18T03:50:41;2.47;;;1.07;;
41572;SDS011;27286;47.870;19.006;2023-11-18T03:53:16;2.97;;;1.70;;
41572;SDS011;27286;47.870;19.006;2023-11-18T03:56:08;2.55;;;1.17;;
41572;SDS011;27286;47.870;19.006;2023-11-18T03:59:14;4.03;;;2.20;;
41572;SDS011;27286;47.870;19.006;2023-11-18T04:02:13;2.85;;;1.48;;
41572;SDS011;27286;47.870;19.006;2023-11-18T04:05:32;2.53;;;1.17;;
41572;SDS011;27286;47.870;19.006;2023-11-18T04:08:10;2.40;;;1.35;;
41572;SDS011;27286;47.870;19.006;2023-11-18T04:10:44;3.67;;;2.35;;
41572;SDS011;27286;47.870;19.006;2023-11-18T04:17:04;2.53;;;1.33;;
41572;SDS011;27286;47.870;19.006;2023-11-18T04:20:04;1.65;;;0.85;;
41572;SDS011;27286;47.870;19.006;2023-11-18T04:23:13;2.17;;;1.02;;
41572;SDS011;27286;47.870;19.006;2023-11-18T04:25:43;1.90;;;0.75;;
41572;SDS011;27286;47.870;19.006;2023-11-18T04:28:10;3.30;;;1.42;;
41572;SDS011;27286;47.870;19.006;2023-11-18T04:31:01;2.65;;;1.17;;
41572;SDS011;27286;47.870;19.006;2023-11-18T04:34:07;3.10;;;1.38;;
41572;SDS011;27286;47.870;19.006;2023-11-18T04:37:20;2.92;;;1.10;;
41572;SDS011;27286;47.870;19.006;2023-11-18T04:40:28;2.72;;;1.00;;
41572;SDS011;27286;47.870;19.006;2023-11-18T04:43:38;1.88;;;0.77;;
41572;SDS011;27286;47.870;19.006;2023-11-18T04:46:33;1.67;;;0.82;;
41572;SDS011;27286;47.870;19.006;2023-11-18T04:49:26;2.65;;;0.98;;
41572;SDS011;27286;47.870;19.006;2023-11-18T04:52:32;1.40;;;0.60;;
41572;SDS011;27286;47.870;19.006;2023-11-18T04:58:28;2.53;;;0.90;;
41572;SDS011;27286;47.870;19.006;2023-11-18T05:01:00;1.90;;;0.70;;
41572;SDS011;27286;47.870;19.006;2023-11-18T05:03:52;1.83;;;1.02;;
41572;SDS011;27286;47.870;19.006;2023-11-18T05:07:03;2.58;;;1.30;;
41572;SDS011;27286;47.870;19.006;2023-11-18T05:09:42;2.55;;;0.90;;
41572;SDS011;27286;47.870;19.006;2023-11-18T05:12:38;2.05;;;0.80;;
41572;SDS011;27286;47.870;19.006;2023-11-18T05:15:27;2.50;;;1.23;;
41572;SDS011;27286;47.870;19.006;2023-11-18T05:18:34;1.70;;;0.70;;
41572;SDS011;27286;47.870;19.006;2023-11-18T05:21:26;1.80;;;1.00;;
41572;SDS011;27286;47.870;19.006;2023-11-18T05:24:35;3.08;;;0.88;;
41572;SDS011;27286;47.870;19.006;2023-11-18T05:27:27;1.38;;;0.75;;
41572;SDS011;27286;47.870;19.006;2023-11-18T05:29:58;2.28;;;0.93;;
41572;SDS011;27286;47.870;19.006;2023-11-18T05:33:30;2.50;;;1.35;;
41572;SDS011;27286;47.870;19.006;2023-11-18T05:36:09;1.90;;;0.93;;
41572;SDS011;27286;47.870;19.006;2023-11-18T05:39:21;2.30;;;1.13;;
41572;SDS011;27286;47.870;19.006;2023-11-18T05:42:32;3.22;;;0.80;;
41572;SDS011;27286;47.870;19.006;2023-11-18T05:45:29;2.47;;;1.13;;
41572;SDS011;27286;47.870;19.006;2023-11-18T05:48:35;2.60;;;0.70;;
41572;SDS011;27286;47.870;19.006;2023-11-18T05:54:38;2.25;;;0.95;;
41572;SDS011;27286;47.870;19.006;2023-11-18T05:57:21;2.28;;;1.17;;
41572;SDS011;27286;47.870;19.006;2023-11-18T06:00:46;2.15;;;0.93;;
41572;SDS011;27286;47.870;19.006;2023-11-18T06:03:34;1.35;;;0.75;;
41572;SDS011;27286;47.870;19.006;2023-11-18T06:06:42;2.55;;;0.70;;
41572;SDS011;27286;47.870;19.006;2023-11-18T06:10:22;5.38;;;0.77;;
41572;SDS011;27286;47.870;19.006;2023-11-18T06:20:04;2.05;;;0.68;;
41572;SDS011;27286;47.870;19.006;2023-11-18T06:22:52;1.85;;;0.82;;
41572;SDS011;27286;47.870;19.006;2023-11-18T06:26:00;3.47;;;0.93;;
41572;SDS011;27286;47.870;19.006;2023-11-18T06:28:59;2.13;;;1.00;;
41572;SDS011;27286;47.870;19.006;2023-11-18T06:31:49;3.92;;;1.35;;
41572;SDS011;27286;47.870;19.006;2023-11-18T06:34:56;2.60;;;0.82;;
41572;SDS011;27286;47.870;19.006;2023-11-18T06:37:53;1.85;;;0.70;;
41572;SDS011;27286;47.870;19.006;2023-11-18T06:40:55;2.40;;;0.80;;
41572;SDS011;27286;47.870;19.006;2023-11-18T06:43:53;1.48;;;0.77;;
41572;SDS011;27286;47.870;19.006;2023-11-18T06:46:26;2.70;;;0.98;;
41572;SDS011;27286;47.870;19.006;2023-11-18T06:49:18;1.10;;;0.50;;
41572;SDS011;27286;47.870;19.006;2023-11-18T06:52:09;1.52;;;0.70;;
41572;SDS011;27286;47.870;19.006;2023-11-18T06:55:04;1.33;;;0.50;;
41572;SDS011;27286;47.870;19.006;2023-11-18T06:57:52;1.02;;;0.45;;
41572;SDS011;27286;47.870;19.006;2023-11-18T07:00:28;2.13;;;0.68;;
41572;SDS011;27286;47.870;19.006;2023-11-18T07:03:00;1.42;;;0.57;;
41572;SDS011;27286;47.870;19.006;2023-11-18T07:05:38;1.55;;;0.50;;
41572;SDS011;27286;47.870;19.006;2023-11-18T07:08:29;1.55;;;0.65;;
41572;SDS011;27286;47.870;19.006;2023-11-18T07:11:33;1.83;;;0.88;;
41572;SDS011;27286;47.870;19.006;2023-11-18T07:14:05;0.75;;;0.30;;
41572;SDS011;27286;47.870;19.006;2023-11-18T07:17:42;1.10;;;0.40;;
41572;SDS011;27286;47.870;19.006;2023-11-18T07:20:38;1.35;;;0.43;;
41572;SDS011;27286;47.870;19.006;2023-11-18T07:23:31;2.45;;;0.80;;
41572;SDS011;27286;47.870;19.006;2023-11-18T07:26:19;0.82;;;0.38;;
41572;SDS011;27286;47.870;19.006;2023-11-18T07:29:03;5.63;;;1.20;;
41572;SDS011;27286;47.870;19.006;2023-11-18T07:31:53;2.30;;;0.60;;
41572;SDS011;27286;47.870;19.006;2023-11-18T07:34:59;1.40;;;0.60;;
41572;SDS011;27286;47.870;19.006;2023-11-18T07:40:25;0.68;;;0.30;;
41572;SDS011;27286;47.870;19.006;2023-11-18T07:43:12;1.13;;;0.45;;
41572;SDS011;27286;47.870;19.006;2023-11-18T07:45:58;1.13;;;0.40;;
41572;SDS011;27286;47.870;19.006;2023-11-18T07:48:37;1.20;;;0.40;;
41572;SDS011;27286;47.870;19.006;2023-11-18T07:51:22;1.30;;;0.40;;
41572;SDS011;27286;47.870;19.006;2023-11-18T07:53:48;2.63;;;0.75;;
41572;SDS011;27286;47.870;19.006;2023-11-18T07:56:17;2.00;;;0.90;;
41572;SDS011;27286;47.870;19.006;2023-11-18T07:58:43;1.83;;;0.30;;
41572;SDS011;27286;47.870;19.006;2023-11-18T08:01:15;1.92;;;0.30;;
41572;SDS011;27286;47.870;19.006;2023-11-18T08:04:42;1.27;;;0.50;;
41572;SDS011;27286;47.870;19.006;2023-11-18T08:07:30;2.20;;;0.70;;
41572;SDS011;27286;47.870;19.006;2023-11-18T08:09:56;2.45;;;1.13;;
41572;SDS011;27286;47.870;19.006;2023-11-18T08:12:22;3.90;;;2.65;;
41572;SDS011;27286;47.870;19.006;2023-11-18T08:14:53;2.00;;;0.50;;
41572;SDS011;27286;47.870;19.006;2023-11-18T08:17:51;2.38;;;0.60;;
41572;SDS011;27286;47.870;19.006;2023-11-18T08:21:06;2.00;;;0.22;;
41572;SDS011;27286;47.870;19.006;2023-11-18T08:24:11;0.70;;;0.30;;
41572;SDS011;27286;47.870;19.006;2023-11-18T08:27:37;1.45;;;0.32;;
41572;SDS011;27286;47.870;19.006;2023-11-18T08:30:02;0.85;;;0.30;;
41572;SDS011;27286;47.870;19.006;2023-11-18T08:32:36;1.48;;;0.30;;
41572;SDS011;27286;47.870;19.006;2023-11-18T08:35:07;1.08;;;0.30;;
41572;SDS011;27286;47.870;19.006;2023-11-18T08:37:35;4.03;;;1.35;;
41572;SDS011;27286;47.870;19.006;2023-11-18T08:40:05;7.50;;;1.45;;
41572;SDS011;27286;47.870;19.006;2023-11-18T08:42:49;5.20;;;1.48;;
41572;SDS011;27286;47.870;19.006;2023-11-18T08:47:44;2.08;;;0.60;;
41572;SDS011;27286;47.870;19.006;2023-11-18T08:50:16;0.98;;;0.30;;
41572;SDS011;27286;47.870;19.006;2023-11-18T08:52:45;1.23;;;0.40;;
41572;SDS011;27286;47.870;19.006;2023-11-18T08:55:17;2.70;;;0.30;;
41572;SDS011;27286;47.870;19.006;2023-11-18T08:57:50;1.85;;;0.32;;
41572;SDS011;27286;47.870;19.006;2023-11-18T09:00:41;2.88;;;0.40;;
41572;SDS011;27286;47.870;19.006;2023-11-18T09:03:15;1.20;;;0.30;;
41572;SDS011;27286;47.870;19.006;2023-11-18T09:05:55;1.77;;;0.30;;
41572;SDS011;27286;47.870;19.006;2023-11-18T09:08:25;0.90;;;0.30;;
41572;SDS011;27286;47.870;19.006;2023-11-18T09:10:57;0.90;;;0.22;;
41572;SDS011;27286;47.870;19.006;2023-11-18T09:13:26;4.65;;;1.45;;
41572;SDS011;27286;47.870;19.006;2023-11-18T09:15:54;1.38;;;0.50;;
41572;SDS011;27286;47.870;19.006;2023-11-18T09:18:21;1.25;;;0.40;;
41572;SDS011;27286;47.870;19.006;2023-11-18T09:20:47;1.50;;;0.52;;
41572;SDS011;27286;47.870;19.006;2023-11-18T09:23:13;2.47;;;0.95;;
41572;SDS011;27286;47.870;19.006;2023-11-18T09:25:41;4.20;;;1.33;;
41572;SDS011;27286;47.870;19.006;2023-11-18T09:28:07;1.63;;;0.40;;
41572;SDS011;27286;47.870;19.006;2023-11-18T09:30:36;3.38;;;0.80;;
41572;SDS011;27286;47.870;19.006;2023-11-18T09:33:04;1.38;;;0.45;;
41572;SDS011;27286;47.870;19.006;2023-11-18T09:35:39;4.03;;;0.50;;
41572;SDS011;27286;47.870;19.006;2023-11-18T09:38:05;4.88;;;1.70;;
41572;SDS011;27286;47.870;19.006;2023-11-18T09:40:32;5.43;;;1.95;;
41572;SDS011;27286;47.870;19.006;2023-11-18T09:43:02;1.98;;;0.60;;
41572;SDS011;27286;47.870;19.006;2023-11-18T09:45:34;3.70;;;1.67;;
41572;SDS011;27286;47.870;19.006;2023-11-18T09:48:01;1.15;;;0.35;;
41572;SDS011;27286;47.870;19.006;2023-11-18T09:50:27;8.18;;;3.08;;
41572;SDS011;27286;47.870;19.006;2023-11-18T09:52:57;4.28;;;1.88;;
41572;SDS011;27286;47.870;19.006;2023-11-18T09:55:35;1.30;;;0.40;;
41572;SDS011;27286;47.870;19.006;2023-11-18T09:58:09;1.38;;;0.40;;
41572;SDS011;27286;47.870;19.006;2023-11-18T10:00:44;8.65;;;3.63;;
41572;SDS011;27286;47.870;19.006;2023-11-18T10:03:16;1.10;;;0.30;;
41572;SDS011;27286;47.870;19.006;2023-11-18T10:05:41;9.60;;;3.88;;
41572;SDS011;27286;47.870;19.006;2023-11-18T10:08:08;1.92;;;0.63;;
41572;SDS011;27286;47.870;19.006;2023-11-18T10:10:34;1.48;;;0.50;;
41572;SDS011;27286;47.870;19.006;2023-11-18T10:13:03;1.00;;;0.30;;
41572;SDS011;27286;47.870;19.006;2023-11-18T10:15:46;1.77;;;0.47;;
41572;SDS011;27286;47.870;19.006;2023-11-18T10:18:17;2.78;;;0.22;;
41572;SDS011;27286;47.870;19.006;2023-11-18T10:20:48;1.10;;;0.10;;
41572;SDS011;27286;47.870;19.006;2023-11-18T10:23:19;1.70;;;0.43;;
41572;SDS011;27286;47.870;19.006;2023-11-18T10:28:31;0.80;;;0.20;;
41572;SDS011;27286;47.870;19.006;2023-11-18T10:31:03;0.43;;;0.20;;
41572;SDS011;27286;47.870;19.006;2023-11-18T10:33:30;1.38;;;0.20;;
41572;SDS011;27286;47.870;19.006;2023-11-18T10:35:57;0.70;;;0.20;;
41572;SDS011;27286;47.870;19.006;2023-11-18T10:38:23;0.47;;;0.20;;
41572;SDS011;27286;47.870;19.006;2023-11-18T10:40:55;0.30;;;0.10;;
41572;SDS011;27286;47.870;19.006;2023-11-18T10:43:22;0.75;;;0.20;;
41572;SDS011;27286;47.870;19.006;2023-11-18T10:48:42;1.15;;;0.20;;
41572;SDS011;27286;47.870;19.006;2023-11-18T10:51:19;0.55;;;0.10;;
41572;SDS011;27286;47.870;19.006;2023-11-18T10:53:49;2.40;;;0.60;;
41572;SDS011;27286;47.870;19.006;2023-11-18T10:56:23;0.60;;;0.10;;
41572;SDS011;27286;47.870;19.006;2023-11-18T10:58:56;0.80;;;0.20;;
41572;SDS011;27286;47.870;19.006;2023-11-18T11:01:30;0.85;;;0.13;;
41572;SDS011;27286;47.870;19.006;2023-11-18T11:03:59;1.63;;;0.50;;
41572;SDS011;27286;47.870;19.006;2023-11-18T11:06:29;3.97;;;1.23;;
41572;SDS011;27286;47.870;19.006;2023-11-18T11:08:57;6.85;;;2.58;;
41572;SDS011;27286;47.870;19.006;2023-11-18T11:11:30;1.17;;;0.40;;
41572;SDS011;27286;47.870;19.006;2023-11-18T11:14:04;2.10;;;0.50;;
41572;SDS011;27286;47.870;19.006;2023-11-18T11:16:37;0.55;;;0.10;;
41572;SDS011;27286;47.870;19.006;2023-11-18T11:19:20;1.33;;;0.30;;
41572;SDS011;27286;47.870;19.006;2023-11-18T11:22:01;1.02;;;0.40;;
41572;SDS011;27286;47.870;19.006;2023-11-18T11:27:22;1.35;;;0.57;;
41572;SDS011;27286;47.870;19.006;2023-11-18T11:30:02;1.23;;;0.40;;
41572;SDS011;27286;47.870;19.006;2023-11-18T11:33:00;1.02;;;0.22;;
41572;SDS011;27286;47.870;19.006;2023-11-18T11:35:46;1.58;;;0.60;;
41572;SDS011;27286;47.870;19.006;2023-11-18T11:38:20;1.05;;;0.20;;
41572;SDS011;27286;47.870;19.006;2023-11-18T11:40:47;0.73;;;0.20;;
41572;SDS011;27286;47.870;19.006;2023-11-18T11:43:14;0.40;;;0.13;;
41572;SDS011;27286;47.870;19.006;2023-11-18T11:45:47;0.75;;;0.25;;
41572;SDS011;27286;47.870;19.006;2023-11-18T11:48:17;0.45;;;0.15;;
41572;SDS011;27286;47.870;19.006;2023-11-18T11:51:01;0.40;;;0.20;;
41572;SDS011;27286;47.870;19.006;2023-11-18T11:53:35;0.52;;;0.10;;
41572;SDS011;27286;47.870;19.006;2023-11-18T11:56:04;2.08;;;0.40;;
41572;SDS011;27286;47.870;19.006;2023-11-18T11:58:31;0.95;;;0.30;;
41572;SDS011;27286;47.870;19.006;2023-11-18T12:01:14;1.98;;;0.40;;
41572;SDS011;27286;47.870;19.006;2023-11-18T12:03:43;5.35;;;2.42;;
41572;SDS011;27286;47.870;19.006;2023-11-18T12:06:12;0.38;;;0.20;;
41572;SDS011;27286;47.870;19.006;2023-11-18T12:08:57;0.40;;;0.10;;
41572;SDS011;27286;47.870;19.006;2023-11-18T12:11:23;0.30;;;0.05;;
41572;SDS011;27286;47.870;19.006;2023-11-18T12:14:02;4.35;;;1.27;;
41572;SDS011;27286;47.870;19.006;2023-11-18T12:19:35;0.45;;;0.10;;
41572;SDS011;27286;47.870;19.006;2023-11-18T12:22:12;0.68;;;0.20;;
41572;SDS011;27286;47.870;19.006;2023-11-18T12:24:46;0.50;;;0.17;;
41572;SDS011;27286;47.870;19.006;2023-11-18T12:27:49;0.75;;;0.20;;
41572;SDS011;27286;47.870;19.006;2023-11-18T12:32:57;0.82;;;0.10;;
41572;SDS011;27286;47.870;19.006;2023-11-18T12:41:37;0.40;;;0.10;;
41572;SDS011;27286;47.870;19.006;2023-11-18T12:49:40;0.50;;;0.20;;
41572;SDS011;27286;47.870;19.006;2023-11-18T12:52:07;0.68;;;0.20;;
41572;SDS011;27286;47.870;19.006;2023-11-18T12:54:33;0.35;;;0.10;;
41572;SDS011;27286;47.870;19.006;2023-11-18T12:57:02;0.95;;;0.10;;
41572;SDS011;27286;47.870;19.006;2023-11-18T12:59:32;0.40;;;0.10;;
41572;SDS011;27286;47.870;19.006;2023-11-18T13:01:58;0.40;;;0.10;;
41572;SDS011;27286;47.870;19.006;2023-11-18T13:04:24;0.65;;;0.10;;
41572;SDS011;27286;47.870;19.006;2023-11-18T13:06:52;0.20;;;0.10;;
41572;SDS011;27286;47.870;19.006;2023-11-18T13:09:18;0.65;;;0.10;;
41572;SDS011;27286;47.870;19.006;2023-11-18T13:12:00;0.35;;;0.10;;
41572;SDS011;27286;47.870;19.006;2023-11-18T13:14:30;0.65;;;0.10;;
41572;SDS011;27286;47.870;19.006;2023-11-18T13:17:01;0.28;;;0.10;;
41572;SDS011;27286;47.870;19.006;2023-11-18T13:19:33;0.35;;;0.10;;
41572;SDS011;27286;47.870;19.006;2023-11-18T13:22:07;2.30;;;0.47;;
41572;SDS011;27286;47.870;19.006;2023-11-18T13:24:38;0.77;;;0.20;;
41572;SDS011;27286;47.870;19.006;2023-11-18T13:27:12;2.15;;;0.68;;
41572;SDS011;27286;47.870;19.006;2023-11-18T13:29:43;0.43;;;0.20;;
41572;SDS011;27286;47.870;19.006;2023-11-18T13:32:10;1.70;;;0.10;;
41572;SDS011;27286;47.870;19.006;2023-11-18T13:34:37;0.20;;;0.10;;
41572;SDS011;27286;47.870;19.006;2023-11-18T13:37:08;0.82;;;0.20;;
41572;SDS011;27286;47.870;19.006;2023-11-18T13:39:34;1.60;;;0.28;;
41572;SDS011;27286;47.870;19.006;2023-11-18T13:42:33;7.70;;;2.90;;
41572;SDS011;27286;47.870;19.006;2023-11-18T13:44:59;1.65;;;0.77;;
41572;SDS011;27286;47.870;19.006;2023-11-18T13:47:26;2.10;;;0.73;;
41572;SDS011;27286;47.870;19.006;2023-11-18T13:49:57;14.93;;;4.95;;
41572;SDS011;27286;47.870;19.006;2023-11-18T13:52:23;13.95;;;3.75;;
41572;SDS011;27286;47.870;19.006;2023-11-18T13:54:50;7.22;;;2.72;;
41572;SDS011;27286;47.870;19.006;2023-11-18T13:57:20;9.75;;;2.92;;
41572;SDS011;27286;47.870;19.006;2023-11-18T13:59:48;13.40;;;6.15;;
41572;SDS011;27286;47.870;19.006;2023-11-18T14:02:14;12.45;;;5.40;;
41572;SDS011;27286;47.870;19.006;2023-11-18T14:04:41;5.55;;;2.22;;
41572;SDS011;27286;47.870;19.006;2023-11-18T14:07:08;3.60;;;1.42;;
41572;SDS011;27286;47.870;19.006;2023-11-18T14:09:35;0.95;;;0.15;;
41572;SDS011;27286;47.870;19.006;2023-11-18T14:12:04;3.53;;;1.17;;
41572;SDS011;27286;47.870;19.006;2023-11-18T14:14:31;1.05;;;0.20;;
41572;SDS011;27286;47.870;19.006;2023-11-18T14:16:57;0.95;;;0.30;;
41572;SDS011;27286;47.870;19.006;2023-11-18T14:19:27;0.70;;;0.20;;
41572;SDS011;27286;47.870;19.006;2023-11-18T14:21:53;3.83;;;1.20;;
41572;SDS011;27286;47.870;19.006;2023-11-18T14:24:19;1.08;;;0.30;;
41572;SDS011;27286;47.870;19.006;2023-11-18T14:26:44;1.10;;;0.43;;
41572;SDS011;27286;47.870;19.006;2023-11-18T14:29:10;2.80;;;0.40;;
41572;SDS011;27286;47.870;19.006;2023-11-18T14:31:38;1.33;;;0.40;;
41572;SDS011;27286;47.870;19.006;2023-11-18T14:34:04;1.30;;;0.40;;
41572;SDS011;27286;47.870;19.006;2023-11-18T14:36:30;1.13;;;0.30;;
41572;SDS011;27286;47.870;19.006;2023-11-18T14:38:56;0.82;;;0.20;;
41572;SDS011;27286;47.870;19.006;2023-11-18T14:41:23;0.75;;;0.30;;
41572;SDS011;27286;47.870;19.006;2023-11-18T14:43:51;1.60;;;0.30;;
41572;SDS011;27286;47.870;19.006;2023-11-18T14:46:17;1.52;;;0.32;;
41572;SDS011;27286;47.870;19.006;2023-11-18T14:48:43;3.45;;;0.40;;
41572;SDS011;27286;47.870;19.006;2023-11-18T14:51:09;1.23;;;0.38;;
41572;SDS011;27286;47.870;19.006;2023-11-18T14:53:35;1.30;;;0.32;;
41572;SDS011;27286;47.870;19.006;2023-11-18T14:56:01;0.90;;;0.40;;
41572;SDS011;27286;47.870;19.006;2023-11-18T14:58:29;1.80;;;0.35;;
41572;SDS011;27286;47.870;19.006;2023-11-18T15:00:55;1.00;;;0.32;;
41572;SDS011;27286;47.870;19.006;2023-11-18T15:03:22;1.75;;;0.40;;
41572;SDS011;27286;47.870;19.006;2023-11-18T15:05:47;1.10;;;0.30;;
41572;SDS011;27286;47.870;19.006;2023-11-18T15:08:13;1.65;;;0.40;;
41572;SDS011;27286;47.870;19.006;2023-11-18T15:10:41;2.67;;;0.60;;
41572;SDS011;27286;47.870;19.006;2023-11-18T15:13:09;2.70;;;0.98;;
41572;SDS011;27286;47.870;19.006;2023-11-18T15:15:40;2.45;;;0.90;;
41572;SDS011;27286;47.870;19.006;2023-11-18T15:18:07;4.35;;;0.80;;
41572;SDS011;27286;47.870;19.006;2023-11-18T15:20:45;1.95;;;0.80;;
41572;SDS011;27286;47.870;19.006;2023-11-18T15:23:12;3.13;;;0.82;;
41572;SDS011;27286;47.870;19.006;2023-11-18T15:25:38;2.65;;;0.82;;
41572;SDS011;27286;47.870;19.006;2023-11-18T15:28:04;2.25;;;0.80;;
41572;SDS011;27286;47.870;19.006;2023-11-18T15:30:35;1.75;;;0.55;;
41572;SDS011;27286;47.870;19.006;2023-11-18T15:33:04;2.25;;;0.68;;
41572;SDS011;27286;47.870;19.006;2023-11-18T15:35:34;1.75;;;0.50;;
41572;SDS011;27286;47.870;19.006;2023-11-18T15:38:03;4.03;;;0.60;;
41572;SDS011;27286;47.870;19.006;2023-11-18T15:40:28;2.10;;;0.63;;
41572;SDS011;27286;47.870;19.006;2023-11-18T15:42:54;2.28;;;0.68;;
41572;SDS011;27286;47.870;19.006;2023-11-18T15:45:21;3.25;;;0.70;;
41572;SDS011;27286;47.870;19.006;2023-11-18T15:47:51;1.30;;;0.40;;
41572;SDS011;27286;47.870;19.006;2023-11-18T15:50:17;2.28;;;0.80;;
41572;SDS011;27286;47.870;19.006;2023-11-18T15:52:44;1.73;;;0.65;;
41572;SDS011;27286;47.870;19.006;2023-11-18T15:55:12;1.88;;;0.75;;
41572;SDS011;27286;47.870;19.006;2023-11-18T15:57:45;2.78;;;1.50;;
41572;SDS011;27286;47.870;19.006;2023-11-18T16:00:17;3.05;;;1.13;;
41572;SDS011;27286;47.870;19.006;2023-11-18T16:02:54;2.33;;;0.73;;
41572;SDS011;27286;47.870;19.006;2023-11-18T16:05:21;2.42;;;0.85;;
41572;SDS011;27286;47.870;19.006;2023-11-18T16:07:48;4.63;;;0.90;;
41572;SDS011;27286;47.870;19.006;2023-11-18T16:10:25;2.85;;;0.90;;
41572;SDS011;27286;47.870;19.006;2023-11-18T16:12:53;2.13;;;0.90;;
41572;SDS011;27286;47.870;19.006;2023-11-18T16:15:20;3.80;;;0.93;;
41572;SDS011;27286;47.870;19.006;2023-11-18T16:18:12;2.40;;;0.90;;
41572;SDS011;27286;47.870;19.006;2023-11-18T16:20:51;2.15;;;0.95;;
41572;SDS011;27286;47.870;19.006;2023-11-18T16:23:42;3.72;;;1.35;;
41572;SDS011;27286;47.870;19.006;2023-11-18T16:26:13;3.08;;;1.15;;
41572;SDS011;27286;47.870;19.006;2023-11-18T16:29:05;2.15;;;0.90;;
41572;SDS011;27286;47.870;19.006;2023-11-18T16:31:41;2.95;;;1.23;;
41572;SDS011;27286;47.870;19.006;2023-11-18T16:34:52;4.32;;;1.13;;
41572;SDS011;27286;47.870;19.006;2023-11-18T16:37:45;2.35;;;1.05;;
41572;SDS011;27286;47.870;19.006;2023-11-18T16:41:22;6.63;;;1.48;;
41572;SDS011;27286;47.870;19.006;2023-11-18T16:44:44;3.70;;;1.42;;
41572;SDS011;27286;47.870;19.006;2023-11-18T16:47:37;3.67;;;1.25;;
41572;SDS011;27286;47.870;19.006;2023-11-18T16:50:29;6.05;;;2.47;;
41572;SDS011;27286;47.870;19.006;2023-11-18T16:53:19;4.53;;;2.55;;
41572;SDS011;27286;47.870;19.006;2023-11-18T16:56:10;2.63;;;1.15;;
41572;SDS011;27286;47.870;19.006;2023-11-18T16:59:04;8.98;;;2.67;;
41572;SDS011;27286;47.870;19.006;2023-11-18T17:02:15;3.47;;;1.90;;
41572;SDS011;27286;47.870;19.006;2023-11-18T17:05:40;4.97;;;1.98;;
41572;SDS011;27286;47.870;19.006;2023-11-18T17:08:48;7.47;;;2.30;;
41572;SDS011;27286;47.870;19.006;2023-11-18T17:14:36;9.50;;;3.55;;
41572;SDS011;27286;47.870;19.006;2023-11-18T17:17:57;8.23;;;3.63;;
41572;SDS011;27286;47.870;19.006;2023-11-18T17:20:48;11.40;;;5.28;;
41572;SDS011;27286;47.870;19.006;2023-11-18T17:23:41;6.22;;;3.53;;